createdAt,value
2019-05-12T00:03:10.623Z,80.03
2019-05-12T00:08:12.721Z,81.15
2019-05-12T00:13:14.816Z,81.06
2019-05-12T00:18:18.096Z,81.06
2019-05-12T00:23:26.997Z,79.93
2019-05-12T00:28:24.320Z,79.81
2019-05-12T00:33:28.253Z,79.37
2019-05-12T00:38:30.736Z,80.50
2019-05-12T00:43:32.865Z,77.88
2019-05-12T00:48:35.042Z,77.88
2019-05-12T00:53:42.719Z,78.31
2019-05-12T00:58:41.048Z,78.64
2019-05-12T01:03:43.106Z,78.00
2019-05-12T01:08:45.221Z,77.12
2019-05-12T01:13:48.562Z,77.12
2019-05-12T01:18:50.695Z,76.31
2019-05-12T01:23:57.204Z,76.31
2019-05-12T01:28:58.071Z,76.00
2019-05-12T01:34:00.212Z,75.89
2019-05-12T01:39:02.225Z,76.28
2019-05-12T01:44:04.283Z,75.89
2019-05-12T01:49:08.333Z,76.08
2019-05-12T01:54:14.892Z,76.46
2019-05-12T01:59:14.419Z,76.66
2019-05-12T02:04:18.110Z,77.08
2019-05-12T02:09:22.745Z,77.85
2019-05-12T02:14:24.812Z,77.29
2019-05-12T02:19:28.233Z,77.35
2019-05-12T02:24:30.713Z,75.68
2019-05-12T02:29:32.934Z,75.53
2019-05-12T02:34:35.277Z,76.53
2019-05-12T02:39:37.343Z,76.88
2019-05-12T02:44:39.446Z,77.61
2019-05-12T02:49:41.561Z,77.23
2019-05-12T02:54:51.997Z,78.39
2019-05-12T02:59:48.169Z,77.34
2019-05-12T03:04:54.733Z,77.34
2019-05-12T03:09:57.505Z,77.52
2019-05-12T03:14:59.570Z,77.48
2019-05-12T03:20:04.938Z,78.33
2019-05-12T03:25:15.375Z,77.54
2019-05-12T03:30:12.119Z,77.12
2019-05-12T03:35:17.433Z,77.83
2019-05-12T03:40:18.013Z,77.93
2019-05-12T03:45:20.159Z,78.52
2019-05-12T03:50:24.390Z,78.37
2019-05-12T03:55:35.472Z,78.85
2019-05-12T04:00:30.329Z,78.44
2019-05-12T04:05:34.987Z,79.55
2019-05-12T04:10:37.092Z,78.93
2019-05-12T04:15:39.505Z,78.97
2019-05-12T04:20:41.551Z,77.84
2019-05-12T04:25:52.148Z,78.32
2019-05-12T04:30:48.391Z,77.65
2019-05-12T04:35:50.383Z,77.75
2019-05-12T04:40:55.272Z,78.92
2019-05-12T04:45:56.499Z,78.93
2019-05-12T04:50:58.581Z,79.60
2019-05-12T04:56:10.665Z,79.27
2019-05-12T05:01:06.294Z,79.01
2019-05-12T05:06:08.672Z,78.24
2019-05-12T05:11:10.850Z,78.52
2019-05-12T05:16:14.437Z,79.30
2019-05-12T05:21:16.820Z,78.13
2019-05-12T05:26:24.778Z,78.85
2019-05-12T05:31:24.307Z,77.06
2019-05-12T05:36:26.572Z,78.25
2019-05-12T05:41:28.615Z,77.89
2019-05-12T05:46:30.694Z,77.70
2019-05-12T05:51:33.517Z,76.84
2019-05-12T05:56:41.779Z,76.71
2019-05-12T06:01:45.161Z,75.95
2019-05-12T06:06:50.715Z,74.47
2019-05-12T06:11:49.098Z,74.47
2019-05-12T06:16:51.180Z,73.25
2019-05-12T06:21:53.459Z,72.94
2019-05-12T06:27:00.493Z,72.43
2019-05-12T06:32:05.142Z,72.71
2019-05-12T06:37:12.159Z,72.74
2019-05-12T06:42:14.245Z,72.22
2019-05-12T06:47:14.199Z,72.22
2019-05-12T06:52:17.709Z,71.97
2019-05-12T06:57:25.203Z,71.97
2019-05-12T07:02:24.491Z,71.67
2019-05-12T07:07:27.698Z,71.68
2019-05-12T07:12:36.697Z,71.49
2019-05-12T07:17:49.731Z,69.93
2019-05-12T07:22:49.849Z,70.35
2019-05-12T07:27:54.941Z,68.90
2019-05-12T07:33:01.318Z,69.22
2019-05-12T07:38:04.567Z,68.44
2019-05-12T07:43:14.867Z,67.96
2019-05-12T07:48:13.919Z,67.33
2019-05-12T07:53:16.030Z,67.33
2019-05-12T07:58:19.343Z,67.69
2019-05-12T08:03:24.344Z,67.69
2019-05-12T08:08:26.642Z,67.69
2019-05-12T08:13:31.045Z,67.08
2019-05-12T08:18:37.061Z,67.13
2019-05-12T08:23:38.090Z,66.68
2019-05-12T08:28:40.734Z,66.68
2019-05-12T08:33:44.703Z,66.25
2019-05-12T08:38:46.794Z,64.13
2019-05-12T08:43:55.027Z,63.15
2019-05-12T08:48:57.895Z,63.15
2019-05-12T08:54:02.330Z,59.61
2019-05-12T08:59:00.944Z,59.61
2019-05-12T09:04:06.725Z,57.66
2019-05-12T09:09:07.593Z,57.66
2019-05-12T09:14:09.643Z,56.97
2019-05-12T09:19:16.689Z,56.97
2019-05-12T09:24:21.747Z,58.86
2019-05-12T09:29:19.695Z,57.99
2019-05-12T09:34:23.524Z,57.79
2019-05-12T09:39:27.152Z,56.89
2019-05-12T09:44:30.542Z,57.37
2019-05-12T09:49:39.082Z,57.25
2019-05-12T09:54:40.834Z,57.92
2019-05-12T09:59:45.808Z,57.91
2019-05-12T10:04:50.011Z,56.04
2019-05-12T10:09:55.081Z,55.20
2019-05-12T10:14:53.594Z,54.28
2019-05-12T10:19:58.101Z,54.28
2019-05-12T10:25:00.172Z,53.77
2019-05-12T10:30:11.895Z,54.33
2019-05-12T10:35:12.461Z,52.54
2019-05-12T10:40:13.911Z,52.38
2019-05-12T10:45:20.598Z,52.55
2019-05-12T10:50:23.516Z,51.12
2019-05-12T10:55:25.566Z,52.59
2019-05-12T11:00:28.209Z,53.66
2019-05-12T11:05:30.311Z,51.84
2019-05-12T11:10:32.494Z,50.52
2019-05-12T11:15:39.562Z,49.82
2019-05-12T11:20:39.624Z,48.89
2019-05-12T11:25:44.101Z,52.18
2019-05-12T11:30:46.225Z,48.79
2019-05-12T11:35:50.887Z,49.25
2019-05-12T11:40:53.853Z,48.99
